LFKF/FSC METAR and TAF weather

Enter ICAO airport designator
Station Type Date Time Source
LFKF METAR 2021/03/05 13:00 UTC NOAA

LFKF 051300Z AUTO 20005KT 170V240 CAVOK 16/07 Q1016 NOSIG


Station Type Date Time Source
LFKF Decoded METAR 2021/03/05 13:00 UTC NOAA

Figari, France (LFKF) 41-30N 009-06E 23M
Mar 05, 2021 - 08:00 AM EST / 2021.03.05 1300 UTC
Wind: from the SSW (200 degrees) at 6 MPH (5 KT) (direction variable):0
Visibility: greater than 7 mile(s):0
Temperature: 60 F (16 C)
Dew Point: 44 F (7 C)
Relative Humidity: 55%
Pressure (altimeter): 30.00 in. Hg (1016 hPa)
ob: LFKF 051300Z AUTO 20005KT 170V240 CAVOK 16/07 Q1016 NOSIG
cycle: 13

Station Type Date Time Source
LFKF TAF 2021/03/05 09:44 UTC NOAA

TAF LFKF 050800Z 0509/0609 05005KT 9999 FEW050
TEMPO 0510/0517 24010KT

Example: see airport list